sensor_id;sensor_type;location;lat;lon;timestamp;P1;durP1;ratioP1;P2;durP2;ratioP2
57093;SDS011;42970;50.996;3.706;2023-08-07T08:23:28;4.05;;;1.65;;
57093;SDS011;42970;50.996;3.706;2023-08-07T08:25:53;2.90;;;1.30;;
57093;SDS011;42970;50.996;3.706;2023-08-07T10:28:14;3.72;;;1.58;;
57093;SDS011;42970;50.996;3.706;2023-08-07T10:30:43;1.95;;;1.40;;
57093;SDS011;42970;50.996;3.706;2023-08-07T10:33:09;1.90;;;1.40;;
57093;SDS011;42970;50.996;3.706;2023-08-07T10:53:12;2.38;;;1.58;;
57093;SDS011;42970;50.996;3.706;2023-08-07T10:55:45;2.03;;;1.30;;
57093;SDS011;42970;50.996;3.706;2023-08-07T10:58:24;1.35;;;1.15;;
57093;SDS011;42970;50.996;3.706;2023-08-07T11:08:26;4.05;;;1.40;;
57093;SDS011;42970;50.996;3.706;2023-08-07T11:10:52;1.52;;;1.40;;
57093;SDS011;42970;50.996;3.706;2023-08-07T11:15:46;6.45;;;1.45;;
57093;SDS011;42970;50.996;3.706;2023-08-07T11:20:37;2.63;;;1.20;;
57093;SDS011;42970;50.996;3.706;2023-08-07T11:23:04;1.90;;;1.55;;
57093;SDS011;42970;50.996;3.706;2023-08-07T11:27:55;0.95;;;0.88;;
57093;SDS011;42970;50.996;3.706;2023-08-07T11:30:21;3.40;;;1.23;;
57093;SDS011;42970;50.996;3.706;2023-08-07T11:32:46;2.13;;;1.00;;
57093;SDS011;42970;50.996;3.706;2023-08-07T11:35:12;2.00;;;0.90;;
57093;SDS011;42970;50.996;3.706;2023-08-07T11:37:44;3.97;;;0.93;;
57093;SDS011;42970;50.996;3.706;2023-08-07T11:40:11;2.80;;;1.10;;
57093;SDS011;42970;50.996;3.706;2023-08-07T11:42:36;0.90;;;0.90;;
57093;SDS011;42970;50.996;3.706;2023-08-07T11:45:02;2.17;;;1.10;;
57093;SDS011;42970;50.996;3.706;2023-08-07T11:49:53;1.25;;;0.90;;
57093;SDS011;42970;50.996;3.706;2023-08-07T11:52:19;2.25;;;1.17;;
57093;SDS011;42970;50.996;3.706;2023-08-07T11:54:47;2.50;;;1.00;;
57093;SDS011;42970;50.996;3.706;2023-08-07T11:57:17;1.92;;;0.95;;
57093;SDS011;42970;50.996;3.706;2023-08-07T11:59:46;2.40;;;0.95;;
57093;SDS011;42970;50.996;3.706;2023-08-07T12:02:13;1.38;;;0.85;;
57093;SDS011;42970;50.996;3.706;2023-08-07T12:04:39;1.73;;;0.70;;
57093;SDS011;42970;50.996;3.706;2023-08-07T12:07:05;5.43;;;0.90;;
57093;SDS011;42970;50.996;3.706;2023-08-07T12:11:56;1.20;;;0.90;;
57093;SDS011;42970;50.996;3.706;2023-08-07T12:14:23;0.98;;;0.70;;
57093;SDS011;42970;50.996;3.706;2023-08-07T12:33:54;1.27;;;0.90;;
57093;SDS011;42970;50.996;3.706;2023-08-07T12:36:19;0.82;;;0.80;;
57093;SDS011;42970;50.996;3.706;2023-08-07T12:38:45;2.53;;;0.52;;
57093;SDS011;42970;50.996;3.706;2023-08-07T12:41:10;1.63;;;0.90;;
57093;SDS011;42970;50.996;3.706;2023-08-07T12:46:01;4.32;;;1.10;;
57093;SDS011;42970;50.996;3.706;2023-08-07T12:48:26;6.70;;;0.90;;
57093;SDS011;42970;50.996;3.706;2023-08-07T12:53:18;2.13;;;1.00;;
57093;SDS011;42970;50.996;3.706;2023-08-07T12:55:44;2.60;;;0.80;;
57093;SDS011;42970;50.996;3.706;2023-08-07T12:58:10;2.60;;;1.27;;
57093;SDS011;42970;50.996;3.706;2023-08-07T13:00:36;7.70;;;1.27;;
57093;SDS011;42970;50.996;3.706;2023-08-07T13:03:02;1.77;;;0.85;;
57093;SDS011;42970;50.996;3.706;2023-08-07T13:05:27;5.32;;;0.85;;
57093;SDS011;42970;50.996;3.706;2023-08-07T13:07:54;0.88;;;0.65;;
57093;SDS011;42970;50.996;3.706;2023-08-07T13:20:06;1.25;;;0.93;;
57093;SDS011;42970;50.996;3.706;2023-08-07T16:19:49;2.65;;;1.02;;
57093;SDS011;42970;50.996;3.706;2023-08-07T16:22:14;2.33;;;1.48;;
57093;SDS011;42970;50.996;3.706;2023-08-07T16:24:40;1.55;;;0.75;;
57093;SDS011;42970;50.996;3.706;2023-08-07T16:27:05;2.03;;;1.25;;
57093;SDS011;42970;50.996;3.706;2023-08-07T16:29:31;1.45;;;1.20;;
57093;SDS011;42970;50.996;3.706;2023-08-07T16:31:56;1.77;;;1.13;;
57093;SDS011;42970;50.996;3.706;2023-08-07T16:34:23;3.05;;;1.35;;
57093;SDS011;42970;50.996;3.706;2023-08-07T16:36:49;2.28;;;1.05;;
57093;SDS011;42970;50.996;3.706;2023-08-07T16:39:14;3.92;;;1.50;;
57093;SDS011;42970;50.996;3.706;2023-08-07T16:41:40;1.83;;;1.05;;
57093;SDS011;42970;50.996;3.706;2023-08-07T16:44:10;1.90;;;0.70;;
57093;SDS011;42970;50.996;3.706;2023-08-07T16:46:35;2.75;;;1.00;;
57093;SDS011;42970;50.996;3.706;2023-08-07T16:49:00;1.40;;;1.20;;
57093;SDS011;42970;50.996;3.706;2023-08-07T16:53:51;2.38;;;1.08;;
57093;SDS011;42970;50.996;3.706;2023-08-07T16:56:17;1.50;;;1.00;;
57093;SDS011;42970;50.996;3.706;2023-08-07T16:58:42;2.97;;;0.90;;
57093;SDS011;42970;50.996;3.706;2023-08-07T17:01:09;2.80;;;1.45;;
57093;SDS011;42970;50.996;3.706;2023-08-07T17:03:35;2.78;;;1.25;;
57093;SDS011;42970;50.996;3.706;2023-08-07T17:06:00;4.80;;;1.20;;
57093;SDS011;42970;50.996;3.706;2023-08-07T17:08:26;5.30;;;1.23;;
57093;SDS011;42970;50.996;3.706;2023-08-07T17:10:51;3.33;;;1.17;;
57093;SDS011;42970;50.996;3.706;2023-08-07T17:13:16;1.55;;;1.10;;
57093;SDS011;42970;50.996;3.706;2023-08-07T17:15:42;2.75;;;1.10;;
57093;SDS011;42970;50.996;3.706;2023-08-07T17:18:07;2.78;;;1.20;;
57093;SDS011;42970;50.996;3.706;2023-08-07T17:20:33;1.45;;;1.25;;
57093;SDS011;42970;50.996;3.706;2023-08-07T17:22:58;1.55;;;1.10;;
57093;SDS011;42970;50.996;3.706;2023-08-07T17:25:24;4.25;;;1.27;;
57093;SDS011;42970;50.996;3.706;2023-08-07T17:27:49;2.08;;;1.23;;
57093;SDS011;42970;50.996;3.706;2023-08-07T17:30:15;1.60;;;1.02;;
57093;SDS011;42970;50.996;3.706;2023-08-07T17:32:40;1.98;;;1.17;;
57093;SDS011;42970;50.996;3.706;2023-08-07T17:35:06;2.58;;;1.80;;
57093;SDS011;42970;50.996;3.706;2023-08-07T17:37:32;3.33;;;1.20;;
57093;SDS011;42970;50.996;3.706;2023-08-07T18:43:05;5.32;;;2.03;;
57093;SDS011;42970;50.996;3.706;2023-08-07T18:45:31;3.40;;;1.73;;
57093;SDS011;42970;50.996;3.706;2023-08-07T18:47:56;3.40;;;1.88;;
57093;SDS011;42970;50.996;3.706;2023-08-07T18:50:22;8.18;;;2.20;;
57093;SDS011;42970;50.996;3.706;2023-08-07T18:52:47;9.63;;;2.08;;
57093;SDS011;42970;50.996;3.706;2023-08-07T18:55:13;11.88;;;2.30;;
57093;SDS011;42970;50.996;3.706;2023-08-07T18:57:38;8.35;;;2.08;;
57093;SDS011;42970;50.996;3.706;2023-08-07T19:00:05;7.88;;;2.72;;
57093;SDS011;42970;50.996;3.706;2023-08-07T19:02:31;5.90;;;1.90;;
